Terminal Aerodrome Forecast
Issued by NWS Duluth, MN

Home | Current Version | Previous Version | Text Only | Print | Product List | Glossary On
Versions: 1 2 3 4 5 6 7 8 9 10 11 12 13 14 15 16 17 18
000
FTUS43 KDLH 271336 AAB
TAFDLH
TAF AMD
KDLH 271336Z 2714/2812 10009KT P6SM VCSH SCT030 BKN100
      TEMPO 2716/2719 5SM -TSRA BR BKN020CB
     FM272100 08010KT P6SM SCT018 BKN050
     FM280200 06005KT P6SM SCT050
     FM280700 06003KT 4SM BR SCT010
      TEMPO 2808/2812 3/4SM BR SCT005=

USA.gov is the U.S. government's official web portal to all federal, state and local government web resources and services.